Latest Coastal Weather Observations for Albion Park

IDN60701

Issued at 6:03 am EDT Tuesday 3 March 2015 (issued every 10 minutes, with the page automatically refreshed every 10 minutes)

About coastal observations | Map of coastal stations | Coastal observations for NSW | Marine services | Other Formats
Station Details ID: 068241 Name: WOLLONGONG AIRPORT Lat: -34.56 Lon: 150.79 Height: 8.0 m
Data from the previous 72 hours. | See also: Recent months at Albion Park
Date/Time
EDT
Temp

°C
Wind Pressure Rain
since 9am
mm
Weather Cloud Vis
km
Sea
Height
m
Swell
Dir
 
Speed
knots
Gust
knots
hPa Trend Height
m
Period
s
Dir
03/05:00am 15.9 W 1 3 1014.7 - 0.0 - - 10 - - - -
03/04:30am 16.9 WNW 4 5 1014.9 - 0.0 - - 10 - - - -
03/04:00am 17.8 NW 5 5 1014.9 - 0.0 - - 10 - - - -
03/03:30am 18.7 NW 5 6 1015.1 - 0.0 - - 10 - - - -
03/03:00am 19.4 NW 5 6 1015.5 - 0.0 - Cloudy 10 - - - -
03/02:30am 19.5 NNW 4 5 1016.0 - 0.0 - Cloudy 10 - - - -
03/02:00am 20.2 NNW 4 5 1016.3 - 0.0 - Cloudy 10 - - - -
03/01:30am 20.3 NNW 5 7 1016.8 - 0.0 - Cloudy 10 - - - -
03/01:00am 19.3 NW 5 6 1017.3 - 0.0 - Cloudy 10 - - - -
03/12:30am 19.5 NW 3 4 1017.5 - 0.0 - Cloudy 10 - - - -
 
Date/Time
EDT
Temp

°C
Wind Pressure Rain
since 9am
mm
Weather Cloud Vis
km
Sea
Height
m
Swell
Dir
 
Speed
knots
Gust
knots
hPa Trend Height
m
Period
s
Dir
02/11:30pm 19.2 CALM 0 0 1017.7 - 0.0 - Cloudy 10 - - - -
02/11:00pm 19.3 CALM 0 0 1017.8 - 0.0 - Cloudy 10 - - - -
02/10:30pm 19.3 WSW 4 6 1017.8 - 0.0 - Cloudy 10 - - - -
02/10:00pm 19.1 W 5 6 1017.8 - 0.0 - Cloudy 10 - - - -
02/09:30pm 19.5 NW 4 5 1017.4 - 0.0 - Cloudy 10 - - - -
02/09:00pm 20.1 NW 4 4 1017.4 - 0.0 - Cloudy 10 - - - -
02/08:30pm 21.3 N 5 6 1017.5 - 0.0 - Partly cloudy 10 - - - -
02/08:00pm 21.3 ENE 4 6 1017.6 - 0.0 - Partly cloudy 10 - - - -
02/07:30pm 21.6 ENE 5 6 1017.4 - 0.0 - Cloudy 10 - - - -
02/07:00pm 22.0 ENE 5 7 1017.2 - 0.0 - Cloudy 10 - - - -
02/06:30pm 22.2 ENE 5 8 1017.1 - 0.0 - Partly cloudy 10 - - - -
02/06:00pm 22.2 ESE 4 6 1017.0 - 0.0 - Cloudy 10 - - - -
02/05:30pm 22.5 E 4 6 1017.0 - 0.0 - Partly cloudy 10 - - - -
02/05:00pm 22.6 ESE 3 6 1017.1 - 0.0 - Partly cloudy 10 - - - -
02/04:30pm 22.3 E 5 8 1017.1 - 0.0 - Partly cloudy 10 - - - -
02/04:00pm 22.4 ESE 6 9 1017.2 - 0.0 - Partly cloudy 10 - - - -
02/03:30pm 22.5 ESE 7 10 1017.5 - 0.0 - Cloudy 10 - - - -
02/03:00pm 22.6 E 7 11 1017.8 - 0.0 - Cloudy 10 - - - -
02/02:30pm 23.0 ESE 7 11 1017.8 - 0.0 - Partly cloudy 10 - - - -
02/02:00pm 22.9 E 7 11 1018.1 - 0.0 - Cloudy 10 - - - -
02/01:30pm 23.0 SSE 7 13 1018.4 - 0.0 - Partly cloudy 10 - - - -
02/01:00pm 22.7 SE 7 14 1018.8 - 0.0 - Cloudy 10 - - - -
02/12:30pm 22.4 SE 8 11 1019.3 - 0.0 - Cloudy 10 - - - -
02/12:00pm 23.0 SSE 9 15 1019.2 - 0.0 - Partly cloudy 10 - - - -
02/11:30am 23.1 SSE 9 15 1019.6 - 0.0 - Partly cloudy 10 - - - -
02/11:00am 22.2 SSE 9 14 1019.4 - 0.0 - - 10 - - - -
02/10:30am 22.1 S 8 13 1019.3 - 0.0 - - 10 - - - -
02/10:00am 21.8 SSW 8 13 1019.6 - 0.0 - - 10 - - - -
02/09:30am 21.2 S 7 12 1019.4 - 0.0 - - 10 - - - -
02/09:00am 20.5 SSW 7 9 1019.2 - 4.2 - - 10 - - - -
02/08:30am 19.1 WSW 6 8 1019.1 - 4.2 - - 10 - - - -
02/08:00am 17.9 SW 7 8 1019.1 - 4.2 - - 10 - - - -
02/07:30am 16.4 WSW 6 7 1018.8 - 4.2 - - 10 - - - -
02/07:00am 16.6 W 6 8 1018.6 - 4.2 - - 10 - - - -
02/06:30am 16.1 W 6 8 1018.2 - 4.2 - - 10 - - - -
02/06:00am 16.4 WSW 5 9 1017.6 - 4.2 - - 10 - - - -
02/05:30am 17.2 SSW 7 10 1017.6 - 4.2 - Partly cloudy 10 - - - -
02/05:00am 15.4 WSW 6 8 1017.6 - 4.2 - - 10 - - - -
02/04:30am 16.0 W 6 8 1017.2 - 4.2 - Partly cloudy 10 - - - -
02/04:00am 16.5 WSW 5 8 1017.1 - 4.2 - Partly cloudy 10 - - - -
02/03:30am 17.3 SSW 7 9 1017.3 - 4.2 - - 10 - - - -
02/03:00am 17.7 SSW 8 12 1017.5 - 4.2 - - 10 - - - -
02/02:30am 17.9 SW 8 13 1017.5 - 4.2 - - 10 - - - -
02/02:00am 18.5 SSW 11 17 1017.5 - 4.2 - - 10 - - - -
02/01:30am 18.5 SSW 8 12 1017.6 - 4.2 - - 10 - - - -
02/01:00am 18.5 S 6 10 1017.5 - 4.2 - - 10 - - - -
02/12:30am 18.8 SSE 5 11 1017.5 - 4.2 - - 10 - - - -
02/12:00am 19.0 S 8 15 1017.5 - 4.2 - - 10 - - - -
 
Date/Time
EDT
Temp

°C
Wind Pressure Rain
since 9am
mm
Weather Cloud Vis
km
Sea
Height
m
Swell
Dir
 
Speed
knots
Gust
knots
hPa Trend Height
m
Period
s
Dir
01/11:30pm 19.1 S 11 17 1017.0 - 4.2 - - 10 - - - -
01/11:00pm 19.6 S 15 23 1017.0 - 4.2 - Partly cloudy 10 - - - -
01/10:30pm 19.9 S 12 19 1016.6 - 4.2 - Cloudy 10 - - - -
01/10:00pm 20.1 S 12 21 1016.2 - 4.2 - Cloudy 10 - - - -
01/09:31pm 20.3 SSE 15 25 1015.7 - 4.2 - Cloudy 10 - - - -
01/09:30pm 20.4 SSE 14 25 1015.7 - 4.2 - Cloudy 10 - - - -
01/09:00pm 20.2 S 14 22 1015.1 - 4.2 - Cloudy 10 - - - -
01/08:30pm 20.1 S 12 18 1014.4 - 4.2 - Cloudy 10 - - - -
01/08:00pm 20.0 S 14 23 1013.5 - 4.2 - Cloudy 10 - - - -
01/07:31pm 20.3 S 16 26 1012.9 - 4.2 - Cloudy 10 - - - -
01/07:30pm 20.3 S 15 23 1012.8 - 4.2 - Cloudy 10 - - - -
01/07:00pm 20.0 S 14 23 1012.0 - 4.2 - Partly cloudy 10 - - - -
01/06:38pm 20.0 S 15 25 1011.6 - 4.2 - Partly cloudy 10 - - - -
01/06:30pm 20.1 S 16 23 1011.6 - 4.2 - Partly cloudy 10 - - - -
01/06:19pm 20.1 S 16 26 1011.2 - 4.2 - Partly cloudy 10 - - - -
01/06:15pm 20.1 S 18 26 1011.1 - 4.2 - Partly cloudy 10 - - - -
01/06:05pm 19.6 S 17 29 1010.7 - 4.2 - Partly cloudy 10 - - - -
01/06:00pm 19.7 S 17 24 1010.8 - 4.2 - Cloudy 10 - - - -
01/05:32pm 20.1 SSE 17 27 1010.0 - 4.2 - Partly cloudy 10 - - - -
01/05:30pm 20.1 SSE 18 27 1010.1 - 4.2 - Partly cloudy 10 - - - -
01/05:23pm 20.0 S 18 27 1010.5 - 4.2 - Cloudy 10 - - - -
01/05:00pm 20.6 SSE 11 17 1009.8 - 4.2 - Partly cloudy 10 - - - -
01/04:39pm 20.4 S 15 26 1008.6 - 4.2 - Partly cloudy 10 - - - -
01/04:34pm 20.5 S 16 26 1008.3 - 4.2 - Partly cloudy 10 - - - -
01/04:31pm 20.4 S 19 26 1008.2 - 4.2 - Partly cloudy 10 - - - -
01/04:30pm 20.4 S 19 28 1008.2 - 4.2 - Partly cloudy 8 - - - -
01/04:29pm 20.4 S 19 29 1008.2 - 4.2 - Partly cloudy 5 - - - -
01/04:27pm 20.4 S 20 29 1008.2 - 4.0 - Partly cloudy 4 - - - -
01/04:14pm 20.8 S 22 30 1007.8 - 2.8 - Partly cloudy 5 - - - -
01/04:00pm 21.5 S 23 36 1007.8 - 2.0 - Partly cloudy 10 - - - -
01/03:48pm 21.9 S 21 35 1006.8 - 2.0 - Partly cloudy 10 - - - -
01/03:38pm 22.5 SSE 15 25 1006.8 - 2.0 - Partly cloudy 10 - - - -
01/03:30pm 23.0 SSE 10 15 1007.1 - 2.0 - Partly cloudy 10 - - - -
01/03:20pm 23.0 ESE 6 14 1007.1 - 2.0 - Partly cloudy 10 - - - -
01/03:06pm 22.9 SSE 14 23 1006.4 - 2.0 - Partly cloudy 10 - - - -
01/03:00pm 23.0 SSE 16 28 1004.4 - 2.0 Rain Cloudy 10 - - - -
01/02:58pm 23.2 SSE 18 32 1004.4 - 1.8 - Partly cloudy 10 - - - -
01/02:55pm 23.3 S 21 32 1005.0 - 1.6 - Partly cloudy 10 - - - -
01/02:45pm 23.5 S 17 27 1006.7 - 1.6 - Partly cloudy 5 - - - -
01/02:37pm 24.3 S 16 23 1006.0 - 1.4 - Partly cloudy 5 - - - -
01/02:30pm 25.4 SSE 12 22 1005.2 - 0.0 - Partly cloudy 10 - - - -
01/02:00pm 27.1 SE 13 21 1004.6 - 0.0 - - 10 - - - -
01/01:30pm 29.1 ESE 9 12 1004.5 - 0.0 - - 10 - - - -
01/01:00pm 28.9 ESE 7 10 1004.3 - 0.0 - - 10 - - - -
01/12:30pm 31.5 ENE 9 12 1004.0 - 0.0 - - 10 - - - -
01/12:00pm 31.1 ESE 8 11 1004.6 - 0.0 - Mostly clear 10 - - - -
01/11:30am 31.3 ENE 6 8 1004.8 - 0.0 - - 10 - - - -
01/11:00am 30.5 ENE 10 12 1005.0 - 0.0 - - 10 - - - -
01/10:30am 30.7 NNE 5 7 1005.1 - 0.0 - - 10 - - - -
01/10:00am 29.5 NNE 6 7 1005.0 - 0.0 - - 10 - - - -
01/09:30am 27.8 NE 4 6 1005.1 - 0.0 - - 10 - - - -
01/09:00am 24.8 S 3 5 1005.1 - 0.0 - - 10 - - - -
01/08:30am 21.9 CALM 0 0 1005.2 - 0.0 - - 10 - - - -
01/08:00am 20.6 W 1 4 1005.1 - 0.0 - - 10 - - - -
01/07:30am 19.2 W 1 3 1005.1 - 0.0 - - 10 - - - -
01/07:00am 17.7 CALM 0 4 1004.9 - 0.0 - - 10 - - - -
01/06:30am 17.9 CALM 0 0 1004.8 - 0.0 - - 10 - - - -
01/06:00am 17.7 CALM 0 3 1004.6 - 0.0 - - 10 - - - -
01/05:30am 18.0 CALM 0 0 1004.6 - 0.0 - - 10 - - - -
01/05:00am 17.8 W 3 5 1004.5 - 0.0 - - 10 - - - -
01/04:30am 18.2 W 1 5 1004.6 - 0.0 - - 10 - - - -
01/04:00am 18.6 W 3 5 1004.8 - 0.0 - - 10 - - - -
01/03:30am 18.9 SW 3 4 1005.2 - 0.0 - - 10 - - - -
01/03:00am 19.3 CALM 0 5 1005.5 - 0.0 - - 10 - - - -
01/02:30am 20.3 NNE 3 5 1005.7 - 0.0 - - 10 - - - -
01/02:00am 20.0 SW 4 8 1006.2 - 0.0 - - 10 - - - -
01/01:30am 19.2 NW 1 4 1006.6 - 0.0 - - 10 - - - -
01/01:00am 19.4 NW 2 3 1007.2 - 0.0 - - 10 - - - -
01/12:30am 19.5 CALM 0 0 1007.5 - 0.0 - - 10 - - - -
01/12:00am 19.9 CALM 0 0 1007.8 - 0.0 - - 10 - - - -
 
Date/Time
EDT
Temp

°C
Wind Pressure Rain
since 9am
mm
Weather Cloud Vis
km
Sea
Height
m
Swell
Dir
 
Speed
knots
Gust
knots
hPa Trend Height
m
Period
s
Dir
28/11:30pm 20.3 NW 3 4 1008.0 - 0.0 - - 10 - - - -
28/11:00pm 20.5 NW 4 5 1008.2 - 0.0 - - 10 - - - -
28/10:30pm 20.9 NW 4 5 1008.3 - 0.0 - - 10 - - - -
28/10:00pm 21.0 NNW 2 5 1008.4 - 0.0 - - 10 - - - -
28/09:30pm 21.7 CALM 0 0 1008.4 - 0.0 - - 10 - - - -
28/09:00pm 22.1 N 1 3 1008.2 - 0.0 - - 10 - - - -
28/08:30pm 23.3 N 3 5 1008.0 - 0.0 - - 10 - - - -
28/08:00pm 23.7 NNE 5 8 1007.8 - 0.0 - - 10 - - - -
28/07:30pm 24.0 NE 8 10 1007.4 - 0.0 - - 10 - - - -
28/07:00pm 24.5 NE 8 11 1007.1 - 0.0 - - 10 - - - -
28/06:30pm 25.0 NE 11 15 1007.1 - 0.0 - - 10 - - - -
28/06:00pm 25.6 NE 11 17 1007.2 - 0.0 - - 10 - - - -
28/05:30pm 25.9 NE 12 16 1007.5 - 0.0 - - 10 - - - -
28/05:00pm 26.2 NE 11 16 1007.7 - 0.0 - - 10 - - - -
28/04:30pm 26.6 NE 12 17 1007.7 - 0.0 - - 10 - - - -
28/04:00pm 26.1 NE 11 14 1007.8 - 0.0 - - 10 - - - -
28/03:30pm 26.2 NE 12 14 1007.9 - 0.0 - - 10 - - - -
28/03:00pm 25.9 NE 13 17 1008.1 - 0.0 - Mostly cloudy 10 - - - -
28/02:30pm 25.8 NE 12 16 1008.5 - 0.0 - - 10 - - - -
28/02:00pm 25.6 ENE 11 15 1008.8 - 0.0 - - 10 - - - -
28/01:30pm 25.8 NE 12 15 1009.0 - 0.0 - - 10 - - - -
28/01:00pm 25.4 NE 12 16 1009.3 - 0.0 - - 10 - - - -
28/12:30pm 25.0 NE 11 13 1009.6 - 0.0 - - 10 - - - -
28/12:00pm 26.1 NE 9 11 1009.9 - 0.0 - Partly cloudy 10 - - - -
28/11:30am 24.7 NE 8 11 1010.4 - 0.0 - - 10 - - - -
28/11:00am 24.9 NE 7 9 1010.6 - 0.0 - - 10 - - - -
28/10:30am 24.0 NE 6 8 1010.9 - 0.0 - - 10 - - - -
28/10:00am 24.0 NE 3 5 1010.9 - 0.0 - - 10 - - - -
28/09:30am 22.4 ENE 3 5 1010.9 - 0.0 - - 10 - - - -
28/09:00am 20.7 CALM 0 0 1010.8 - 0.0 - Mostly clear 10 - - - -
28/08:30am 19.8 S 4 5 1010.8 - 0.0 - - 10 - - - -
28/08:00am 18.6 CALM 0 0 1010.6 - 0.0 - - 10 - - - -
28/07:30am 18.1 CALM 0 0 1010.3 - 0.0 - - 10 - - - -
28/07:00am 17.5 CALM 0 0 1010.2 - 0.0 - - 10 - - - -
28/06:30am 17.4 SSE 2 4 1009.8 - 0.0 - - 10 - - - -

Other Formats:

Comma delimited format used in spreadsheet applications
http://www.bom.gov.au/fwo/IDN60701/IDN60701.95748.axf

JavaScript Object Notation format (JSON) in row-major order
http://www.bom.gov.au/fwo/IDN60701/IDN60701.95748.json